Time;durP1;ratioP1;P1;durP2;ratioP2;P2;SDS_P1;SDS_P2;PMS_P1;PMS_P2;Temp;Humidity;BMP_temperature;BMP_pressure;BME280_temperature;BME280_humidity;BME280_pressure;Samples;Min_cycle;Max_cycle;Signal;HPM_P1;HPM_P2
2022/02/13 00:00:59;;;;;;;4.80;3.00;;;8.10;99.90;;;;;;5062495;28;20757;-69
2022/02/13 00:03:27;;;;;;;4.70;2.97;;;8.10;99.90;;;;;;5059206;28;20178;-68
2022/02/13 00:05:54;;;;;;;4.27;3.30;;;8.10;99.90;;;;;;5057939;28;20593;-68
2022/02/13 00:08:20;;;;;;;4.00;3.27;;;8.00;99.90;;;;;;5065438;28;20229;-68
2022/02/13 00:10:47;;;;;;;10.23;3.50;;;8.00;99.90;;;;;;5074233;28;20866;-69
2022/02/13 00:13:13;;;;;;;5.90;3.50;;;8.00;99.90;;;;;;5063417;28;20604;-68
2022/02/13 00:15:39;;;;;;;5.33;3.40;;;8.00;99.90;;;;;;5062517;28;20183;-68
2022/02/13 00:18:06;;;;;;;7.73;3.63;;;8.00;99.90;;;;;;5060717;28;20310;-68
2022/02/13 00:20:32;;;;;;;6.47;3.50;;;8.00;99.90;;;;;;5064464;28;20321;-69
2022/02/13 00:22:59;;;;;;;6.13;3.20;;;8.00;99.90;;;;;;5062212;28;20651;-69
2022/02/13 00:25:25;;;;;;;5.60;3.67;;;8.10;99.90;;;;;;5060147;28;20188;-69
2022/02/13 00:27:51;;;;;;;4.53;3.10;;;8.10;99.90;;;;;;5075335;28;20191;-69
2022/02/13 00:30:18;;;;;;;5.27;3.47;;;8.10;99.90;;;;;;5064818;28;20190;-69
2022/02/13 00:32:45;;;;;;;8.63;3.97;;;8.10;99.90;;;;;;5062672;28;20209;-69
2022/02/13 00:35:15;;;;;;;10.27;3.97;;;8.00;99.90;;;;;;5053708;28;20182;-68
2022/02/13 00:37:42;;;;;;;6.37;4.20;;;8.00;99.90;;;;;;5076574;28;20187;-69
2022/02/13 00:40:10;;;;;;;7.23;3.50;;;7.90;99.90;;;;;;5064197;28;20190;-69
2022/02/13 00:42:36;;;;;;;6.33;3.97;;;7.90;99.90;;;;;;5090406;28;20340;-68
2022/02/13 00:45:05;;;;;;;9.70;3.80;;;7.90;99.90;;;;;;5047316;28;20179;-68
2022/02/13 00:47:32;;;;;;;8.70;3.80;;;7.90;99.90;;;;;;5073103;28;20244;-69
2022/02/13 00:49:58;;;;;;;4.80;3.73;;;8.00;99.90;;;;;;5064426;28;20267;-69
2022/02/13 00:52:24;;;;;;;7.57;3.57;;;8.00;99.90;;;;;;5070288;28;20183;-68
2022/02/13 00:54:50;;;;;;;5.27;4.00;;;8.10;99.90;;;;;;5060854;28;20194;-68
2022/02/13 00:57:17;;;;;;;7.83;4.37;;;8.00;99.90;;;;;;5071913;28;20191;-69
2022/02/13 00:59:43;;;;;;;5.80;3.80;;;8.00;99.90;;;;;;5064925;28;20186;-69
2022/02/13 01:02:09;;;;;;;6.17;4.60;;;8.00;99.90;;;;;;5062887;28;20210;-69
2022/02/13 01:04:35;;;;;;;7.33;4.50;;;8.00;99.90;;;;;;5069515;28;20186;-69
2022/02/13 01:07:02;;;;;;;8.47;5.23;;;8.00;99.90;;;;;;5062445;28;20262;-68
2022/02/13 01:09:28;;;;;;;11.40;5.23;;;8.10;99.90;;;;;;5066236;28;20567;-68
2022/02/13 01:11:54;;;;;;;6.20;4.40;;;8.10;99.90;;;;;;5066273;28;20198;-69
2022/02/13 01:14:21;;;;;;;5.70;4.30;;;8.20;99.90;;;;;;5076195;28;20187;-69
2022/02/13 01:16:47;;;;;;;4.77;3.93;;;8.20;99.90;;;;;;5061630;28;20210;-69
2022/02/13 01:19:13;;;;;;;5.43;3.97;;;8.20;99.90;;;;;;5061597;28;20178;-68
2022/02/13 01:21:39;;;;;;;6.07;4.07;;;8.10;99.90;;;;;;5074956;28;20206;-69
2022/02/13 01:24:06;;;;;;;5.80;4.00;;;8.10;99.90;;;;;;5060870;28;20191;-68
2022/02/13 01:26:33;;;;;;;5.77;4.13;;;8.10;99.90;;;;;;5074306;28;20216;-68
2022/02/13 01:29:00;;;;;;;5.57;3.90;;;8.10;99.90;;;;;;5070289;28;21203;-69
2022/02/13 01:31:27;;;;;;;5.90;4.10;;;8.10;99.90;;;;;;5068666;28;20197;-69
2022/02/13 01:33:54;;;;;;;6.53;4.10;;;8.10;99.90;;;;;;5061385;28;20316;-69
2022/02/13 01:36:20;;;;;;;6.33;3.73;;;8.10;99.90;;;;;;5063154;28;20186;-69
2022/02/13 01:38:48;;;;;;;5.83;4.23;;;8.10;99.90;;;;;;5064068;28;20244;-68
2022/02/13 01:41:14;;;;;;;6.80;3.70;;;8.10;99.90;;;;;;5055814;28;20227;-68
2022/02/13 01:43:40;;;;;;;5.37;3.80;;;8.10;99.90;;;;;;5076814;28;20321;-69
2022/02/13 01:46:07;;;;;;;4.70;3.63;;;8.10;99.90;;;;;;5064177;28;20273;-68
2022/02/13 01:48:33;;;;;;;6.00;4.13;;;8.10;99.90;;;;;;5076851;28;20191;-69
2022/02/13 01:51:00;;;;;;;6.30;4.20;;;8.00;99.90;;;;;;5064623;28;20197;-69
2022/02/13 01:53:29;;;;;;;7.53;4.63;;;8.00;99.90;;;;;;5064828;28;20194;-69
2022/02/13 01:55:56;;;;;;;6.13;4.50;;;8.00;99.90;;;;;;5065759;28;20189;-69
2022/02/13 01:58:22;;;;;;;8.87;4.37;;;8.00;99.90;;;;;;5065561;28;21803;-69
2022/02/13 02:00:49;;;;;;;8.90;4.20;;;8.00;99.90;;;;;;5073135;28;20187;-68
2022/02/13 02:03:15;;;;;;;7.33;4.17;;;8.00;99.90;;;;;;5065827;28;20194;-69
2022/02/13 02:05:42;;;;;;;5.73;4.27;;;8.00;99.90;;;;;;5080154;28;20487;-69
2022/02/13 02:08:09;;;;;;;4.47;3.50;;;8.00;99.90;;;;;;5067762;28;20182;-69
2022/02/13 02:10:36;;;;;;;6.17;4.60;;;8.00;99.90;;;;;;5065298;28;20278;-68
2022/02/13 02:13:03;;;;;;;7.43;4.47;;;8.00;99.90;;;;;;5064734;28;20183;-68
2022/02/13 02:15:29;;;;;;;5.87;4.40;;;8.00;99.90;;;;;;5082872;28;20198;-68
2022/02/13 02:17:55;;;;;;;5.73;4.20;;;8.00;99.90;;;;;;5068037;28;20711;-68
2022/02/13 02:20:22;;;;;;;7.23;3.67;;;8.00;99.90;;;;;;5074644;28;20178;-68
2022/02/13 02:22:58;;;;;;;5.07;4.23;;;8.00;99.90;;;;;;5065312;28;20272;-68
2022/02/13 02:25:24;;;;;;;6.97;4.20;;;8.00;99.90;;;;;;5074105;28;20182;-68
2022/02/13 02:27:50;;;;;;;7.47;3.97;;;7.90;99.90;;;;;;5069093;28;20190;-68
2022/02/13 02:30:17;;;;;;;7.13;4.20;;;7.80;99.90;;;;;;5065580;28;20202;-69
2022/02/13 02:32:43;;;;;;;5.73;4.20;;;7.70;99.90;;;;;;5063504;28;20801;-68
2022/02/13 02:35:10;;;;;;;6.07;3.60;;;7.70;99.90;;;;;;5064530;28;20198;-69
2022/02/13 02:37:36;;;;;;;5.53;4.00;;;7.70;99.90;;;;;;5069343;28;22395;-69
2022/02/13 02:40:03;;;;;;;7.10;4.63;;;7.60;99.90;;;;;;5065276;28;20282;-69
2022/02/13 02:42:29;;;;;;;6.47;3.80;;;7.60;99.90;;;;;;5074904;28;20234;-69
2022/02/13 02:44:56;;;;;;;5.53;4.20;;;7.70;99.90;;;;;;5066350;28;20232;-68
2022/02/13 02:47:22;;;;;;;4.40;3.60;;;7.70;99.90;;;;;;5070080;28;20274;-69
2022/02/13 02:49:49;;;;;;;8.13;4.40;;;7.70;99.90;;;;;;5073858;28;20819;-68
2022/02/13 02:52:18;;;;;;;8.97;4.23;;;7.60;99.90;;;;;;5061984;28;21136;-68
2022/02/13 02:54:45;;;;;;;4.57;4.10;;;7.60;99.90;;;;;;5076649;28;20512;-69
2022/02/13 02:57:12;;;;;;;6.53;4.90;;;7.60;99.90;;;;;;5089312;28;20186;-68
2022/02/13 02:59:40;;;;;;;6.67;4.40;;;7.70;99.90;;;;;;5073783;28;20285;-69
2022/02/13 03:02:06;;;;;;;5.60;4.20;;;7.70;99.90;;;;;;5059792;28;20218;-69
2022/02/13 03:04:32;;;;;;;5.77;4.60;;;7.70;99.90;;;;;;5069968;28;20187;-68
2022/02/13 03:06:58;;;;;;;6.30;4.40;;;7.70;99.90;;;;;;5062772;28;20601;-68
2022/02/13 03:09:25;;;;;;;6.67;4.80;;;7.70;99.90;;;;;;5058622;28;20289;-68
2022/02/13 03:11:51;;;;;;;7.10;4.23;;;7.80;99.90;;;;;;5060552;28;20351;-68
2022/02/13 03:14:17;;;;;;;5.53;4.40;;;7.80;99.90;;;;;;5073310;28;20478;-68
2022/02/13 03:16:44;;;;;;;6.40;4.17;;;7.80;99.90;;;;;;5088539;28;20196;-68
2022/02/13 03:19:10;;;;;;;4.80;4.13;;;7.80;99.90;;;;;;5061806;28;20187;-68
2022/02/13 03:21:36;;;;;;;6.77;4.63;;;7.80;99.90;;;;;;5061998;28;20203;-68
2022/02/13 03:24:07;;;;;;;5.47;4.40;;;7.80;99.90;;;;;;5075065;28;20184;-69
2022/02/13 03:26:34;;;;;;;5.20;4.10;;;7.80;99.90;;;;;;5061946;28;20179;-69
2022/02/13 03:29:00;;;;;;;4.03;3.63;;;7.80;99.90;;;;;;5063959;28;20536;-69
2022/02/13 03:31:27;;;;;;;5.33;4.43;;;7.80;99.90;;;;;;5061070;28;20696;-69
2022/02/13 03:33:54;;;;;;;4.80;4.20;;;7.80;99.90;;;;;;5060684;28;20298;-68
2022/02/13 03:36:20;;;;;;;5.17;4.10;;;7.80;99.90;;;;;;5071116;28;20963;-69
2022/02/13 03:38:46;;;;;;;7.13;4.40;;;7.80;99.90;;;;;;5073298;28;20189;-69
2022/02/13 03:41:13;;;;;;;7.07;4.50;;;7.70;99.90;;;;;;5060127;28;20345;-68
2022/02/13 03:43:39;;;;;;;5.90;4.23;;;7.70;99.90;;;;;;5064890;28;20183;-69
2022/02/13 03:46:05;;;;;;;8.13;4.20;;;7.60;99.90;;;;;;5065020;28;20190;-69
2022/02/13 03:48:32;;;;;;;4.20;3.80;;;7.60;99.90;;;;;;5051663;28;20231;-69
2022/02/13 03:50:58;;;;;;;5.60;3.90;;;7.60;99.90;;;;;;5059479;28;20194;-68
2022/02/13 03:53:24;;;;;;;6.27;3.90;;;7.60;99.90;;;;;;5063418;28;20197;-68
2022/02/13 03:55:50;;;;;;;5.97;4.43;;;7.60;99.90;;;;;;5086911;28;20196;-68
2022/02/13 03:58:17;;;;;;;6.80;4.43;;;7.60;99.90;;;;;;5056646;28;20611;-68
2022/02/13 04:00:43;;;;;;;6.00;4.33;;;7.50;99.90;;;;;;5053609;28;20191;-69
2022/02/13 04:03:12;;;;;;;10.17;4.20;;;7.50;99.90;;;;;;5065004;28;20201;-68
2022/02/13 04:05:38;;;;;;;6.20;4.43;;;7.50;99.90;;;;;;5061627;28;20294;-68
2022/02/13 04:08:05;;;;;;;6.27;3.87;;;7.50;99.90;;;;;;5064990;28;20198;-69
2022/02/13 04:10:32;;;;;;;5.27;4.20;;;7.40;99.90;;;;;;5074327;28;20197;-69
2022/02/13 04:12:59;;;;;;;6.23;4.47;;;7.40;99.90;;;;;;5061741;28;20200;-69
2022/02/13 04:15:26;;;;;;;4.50;4.00;;;7.30;99.90;;;;;;5060618;28;20741;-69
2022/02/13 04:17:52;;;;;;;6.83;4.57;;;7.30;99.90;;;;;;5073538;28;20185;-68
2022/02/13 04:20:20;;;;;;;9.10;4.60;;;7.40;99.90;;;;;;5068883;28;20220;-69
2022/02/13 04:22:47;;;;;;;7.17;4.33;;;7.40;99.90;;;;;;5084946;28;20238;-69
2022/02/13 04:25:13;;;;;;;8.57;4.47;;;7.40;99.90;;;;;;5058987;28;20226;-68
2022/02/13 04:27:40;;;;;;;5.67;4.43;;;7.50;99.90;;;;;;5059615;28;20703;-69
2022/02/13 04:30:07;;;;;;;6.80;4.33;;;7.60;99.90;;;;;;5070658;28;20214;-68
2022/02/13 04:32:34;;;;;;;7.97;4.70;;;7.60;99.90;;;;;;5062556;28;20256;-69
2022/02/13 04:35:00;;;;;;;5.30;4.57;;;7.60;99.90;;;;;;5068833;28;20272;-69
2022/02/13 04:37:27;;;;;;;7.47;4.77;;;7.60;99.90;;;;;;5075265;28;20298;-69
2022/02/13 04:39:53;;;;;;;10.40;4.50;;;7.60;99.90;;;;;;5061462;28;20195;-68
2022/02/13 04:42:19;;;;;;;5.37;4.60;;;7.60;99.90;;;;;;5061804;28;20367;-68
2022/02/13 04:44:46;;;;;;;6.60;4.80;;;7.60;99.90;;;;;;5060409;28;20947;-68
2022/02/13 04:47:12;;;;;;;5.73;4.37;;;7.60;99.90;;;;;;5046759;28;20400;-69
2022/02/13 04:49:38;;;;;;;5.70;4.37;;;7.60;99.90;;;;;;5063245;28;20186;-68
2022/02/13 04:52:05;;;;;;;7.57;5.10;;;7.60;99.90;;;;;;5057698;28;20191;-69
2022/02/13 04:54:31;;;;;;;6.40;5.03;;;7.60;99.90;;;;;;5062213;28;20530;-69
2022/02/13 04:56:57;;;;;;;6.27;4.60;;;7.60;99.90;;;;;;5069492;28;20396;-69
2022/02/13 04:59:24;;;;;;;6.77;5.07;;;7.60;99.90;;;;;;5052679;28;20280;-69
2022/02/13 05:01:50;;;;;;;8.80;5.30;;;7.60;99.90;;;;;;5072572;28;20221;-68
2022/02/13 05:04:17;;;;;;;7.47;5.10;;;7.60;99.90;;;;;;5057941;28;20317;-68
2022/02/13 05:06:43;;;;;;;7.20;4.50;;;7.70;99.90;;;;;;5069744;28;20183;-68
2022/02/13 05:09:10;;;;;;;6.23;4.87;;;7.70;99.90;;;;;;5060247;28;20186;-68
2022/02/13 05:11:36;;;;;;;7.70;4.90;;;7.70;99.90;;;;;;5061163;28;20225;-68
2022/02/13 05:14:03;;;;;;;6.57;4.33;;;7.80;99.90;;;;;;5048341;28;20707;-69
2022/02/13 05:16:30;;;;;;;6.07;4.57;;;7.80;99.90;;;;;;5047360;28;20195;-69
2022/02/13 05:18:56;;;;;;;6.03;5.00;;;7.70;99.90;;;;;;5047487;28;20214;-69
2022/02/13 05:21:22;;;;;;;5.67;4.00;;;7.70;99.90;;;;;;5061791;28;20724;-68
2022/02/13 05:23:49;;;;;;;5.87;4.67;;;7.70;99.90;;;;;;5063859;28;20686;-69
2022/02/13 05:26:15;;;;;;;7.00;4.47;;;7.70;99.90;;;;;;5067223;28;21989;-69
2022/02/13 05:28:41;;;;;;;6.80;5.03;;;7.70;99.90;;;;;;5063349;28;20187;-68
2022/02/13 05:31:07;;;;;;;4.90;4.40;;;7.70;99.90;;;;;;5069492;28;20190;-69
2022/02/13 05:33:34;;;;;;;5.13;4.40;;;7.70;99.90;;;;;;5054817;28;20218;-69
2022/02/13 05:36:00;;;;;;;5.70;4.20;;;7.70;99.90;;;;;;5063604;28;20186;-69
2022/02/13 05:38:26;;;;;;;6.97;4.43;;;7.70;99.90;;;;;;5061284;28;20224;-69
2022/02/13 05:40:53;;;;;;;7.20;4.10;;;7.70;99.90;;;;;;5054291;28;20828;-69
2022/02/13 05:43:19;;;;;;;6.90;4.40;;;7.70;99.90;;;;;;5053787;28;20225;-69
2022/02/13 05:45:46;;;;;;;4.90;4.20;;;7.70;99.90;;;;;;5065388;28;20234;-68
2022/02/13 05:48:13;;;;;;;7.30;5.00;;;7.70;99.90;;;;;;5065503;28;20270;-69
2022/02/13 05:50:41;;;;;;;7.07;4.83;;;7.80;99.90;;;;;;5062878;28;20182;-68
2022/02/13 05:53:08;;;;;;;6.83;4.63;;;7.80;99.90;;;;;;5067863;28;20216;-69
2022/02/13 05:55:34;;;;;;;6.93;4.87;;;7.90;99.90;;;;;;5064548;28;20625;-69
2022/02/13 05:58:01;;;;;;;7.43;4.90;;;8.00;99.90;;;;;;5071907;28;20287;-69
2022/02/13 06:00:27;;;;;;;9.07;5.07;;;8.00;99.90;;;;;;5060727;28;20186;-69
2022/02/13 06:02:53;;;;;;;6.60;4.73;;;8.10;99.90;;;;;;5066662;28;20226;-68
2022/02/13 06:05:19;;;;;;;12.77;5.27;;;8.20;99.90;;;;;;5062533;28;20206;-69
2022/02/13 06:07:46;;;;;;;6.47;4.80;;;8.20;99.90;;;;;;5061045;28;20659;-69
2022/02/13 06:10:13;;;;;;;8.47;5.43;;;8.30;99.90;;;;;;5065430;28;20694;-69
2022/02/13 06:12:40;;;;;;;5.83;4.93;;;8.30;99.90;;;;;;5066549;28;20883;-68
2022/02/13 06:15:08;;;;;;;6.20;5.17;;;8.40;99.90;;;;;;5065576;28;20195;-69
2022/02/13 06:17:34;;;;;;;7.57;5.57;;;8.40;99.90;;;;;;5066240;28;20210;-68
2022/02/13 06:20:01;;;;;;;8.50;5.37;;;8.50;99.90;;;;;;5071014;28;20179;-69
2022/02/13 06:22:27;;;;;;;9.13;5.63;;;8.50;99.90;;;;;;5064803;28;20222;-69
2022/02/13 06:24:53;;;;;;;6.50;5.70;;;8.60;99.90;;;;;;5070785;28;20559;-69
2022/02/13 06:27:22;;;;;;;7.07;5.57;;;8.70;99.90;;;;;;5085702;28;20260;-69
2022/02/13 06:29:49;;;;;;;7.17;5.73;;;8.70;99.90;;;;;;5062708;28;20218;-69
2022/02/13 06:32:16;;;;;;;6.97;5.53;;;8.80;99.90;;;;;;5063070;28;20312;-69
2022/02/13 06:34:43;;;;;;;6.77;5.53;;;8.80;99.90;;;;;;5052196;28;20197;-69
2022/02/13 06:37:09;;;;;;;9.83;5.63;;;8.90;99.90;;;;;;5069859;28;20195;-69
2022/02/13 06:39:36;;;;;;;8.23;5.27;;;8.90;99.90;;;;;;5075029;28;20281;-68
2022/02/13 06:42:03;;;;;;;10.60;5.77;;;9.00;99.90;;;;;;5062478;28;20267;-69
2022/02/13 06:44:29;;;;;;;7.90;6.03;;;9.00;99.90;;;;;;5064910;28;20191;-69
2022/02/13 06:46:56;;;;;;;6.00;5.40;;;9.10;99.90;;;;;;5061912;28;20182;-69
2022/02/13 06:49:22;;;;;;;5.70;5.10;;;9.10;99.90;;;;;;5055508;28;20706;-69
2022/02/13 06:51:48;;;;;;;7.57;5.13;;;9.20;99.90;;;;;;5061157;28;20290;-69
2022/02/13 06:54:15;;;;;;;7.87;5.40;;;9.20;99.90;;;;;;5068724;28;20697;-69
2022/02/13 06:56:41;;;;;;;7.87;5.63;;;9.30;99.90;;;;;;5060878;28;20198;-69
2022/02/13 06:59:07;;;;;;;10.97;5.70;;;9.50;99.90;;;;;;5063780;28;20190;-68
2022/02/13 07:01:33;;;;;;;6.50;5.20;;;9.70;99.90;;;;;;5061715;28;20272;-69
2022/02/13 07:04:00;;;;;;;5.80;5.20;;;9.80;99.90;;;;;;5060893;28;20273;-68
2022/02/13 07:06:26;;;;;;;8.53;5.70;;;9.80;99.90;;;;;;5062290;28;20268;-69
2022/02/13 07:08:52;;;;;;;5.87;5.20;;;9.80;99.90;;;;;;5065908;28;20244;-69
2022/02/13 07:11:18;;;;;;;6.60;4.80;;;9.80;99.90;;;;;;5062623;28;20199;-69
2022/02/13 07:13:45;;;;;;;6.00;4.80;;;9.80;99.90;;;;;;5062057;28;20894;-69
2022/02/13 07:16:11;;;;;;;7.60;5.20;;;9.80;99.90;;;;;;5063318;28;20190;-69
2022/02/13 07:18:38;;;;;;;7.47;5.40;;;9.90;99.90;;;;;;5070546;28;20742;-69
2022/02/13 07:21:04;;;;;;;5.93;4.43;;;9.90;99.90;;;;;;5063551;28;20567;-69
2022/02/13 07:23:30;;;;;;;7.30;4.80;;;10.00;99.90;;;;;;5062852;28;20609;-69
2022/02/13 07:25:57;;;;;;;9.90;4.70;;;10.10;99.90;;;;;;5065286;28;20710;-69
2022/02/13 07:31:08;;;;;;;4.93;4.43;;;10.20;99.90;;;;;;5075232;28;20183;-68
2022/02/13 07:33:34;;;;;;;9.30;4.23;;;10.20;99.90;;;;;;5070791;28;20267;-69
2022/02/13 07:36:01;;;;;;;6.80;3.80;;;10.20;99.90;;;;;;5064931;28;20677;-69
2022/02/13 07:38:29;;;;;;;5.53;3.80;;;10.20;99.90;;;;;;5066209;28;20234;-69
2022/02/13 07:40:55;;;;;;;4.30;3.60;;;10.30;99.90;;;;;;5060723;28;20190;-69
2022/02/13 07:43:21;;;;;;;5.73;3.50;;;10.30;99.90;;;;;;5058958;28;20252;-69
2022/02/13 07:45:48;;;;;;;5.23;3.50;;;10.30;99.90;;;;;;5060471;28;20240;-69
2022/02/13 07:48:14;;;;;;;7.07;3.73;;;10.30;99.90;;;;;;5062366;28;20190;-69
2022/02/13 07:50:41;;;;;;;7.57;3.50;;;10.40;99.90;;;;;;5062143;28;20564;-68
2022/02/13 07:53:07;;;;;;;7.73;3.40;;;10.40;99.90;;;;;;5060595;28;20195;-69
2022/02/13 07:55:33;;;;;;;8.43;3.70;;;10.40;99.90;;;;;;5063076;28;20209;-68
2022/02/13 07:58:00;;;;;;;6.37;3.60;;;10.50;99.90;;;;;;5065383;28;20703;-68
2022/02/13 08:00:26;;;;;;;4.77;4.00;;;10.50;99.90;;;;;;5062997;28;20202;-69
2022/02/13 08:02:52;;;;;;;4.17;3.67;;;10.60;99.90;;;;;;5064669;28;20588;-68
2022/02/13 08:05:19;;;;;;;4.30;3.90;;;10.60;99.90;;;;;;5067629;28;20202;-69
2022/02/13 08:07:50;;;;;;;4.60;3.60;;;10.70;99.90;;;;;;5076579;28;20195;-68
2022/02/13 08:10:18;;;;;;;8.57;3.80;;;10.80;99.90;;;;;;5043615;28;20641;-68
2022/02/13 08:12:46;;;;;;;7.00;3.40;;;11.30;99.90;;;;;;5047195;28;20250;-68
2022/02/13 08:15:13;;;;;;;5.90;3.53;;;11.90;99.90;;;;;;5067068;28;20225;-69
2022/02/13 08:17:40;;;;;;;6.17;3.63;;;11.70;99.90;;;;;;5069180;28;20182;-69
2022/02/13 08:20:13;;;;;;;6.27;3.13;;;11.50;99.90;;;;;;5076766;28;20190;-69
2022/02/13 08:22:40;;;;;;;7.20;3.43;;;11.40;99.90;;;;;;5076191;28;20278;-69
2022/02/13 08:25:08;;;;;;;5.17;3.33;;;11.50;99.90;;;;;;5065389;28;20658;-69
2022/02/13 08:27:34;;;;;;;6.90;3.53;;;11.50;99.90;;;;;;5075959;28;20201;-68
2022/02/13 08:30:02;;;;;;;7.03;3.67;;;11.50;99.90;;;;;;5072492;28;20288;-69
2022/02/13 08:32:28;;;;;;;4.37;3.30;;;11.60;99.90;;;;;;5070735;28;20215;-69
2022/02/13 08:34:54;;;;;;;6.30;3.53;;;11.60;99.90;;;;;;5075670;28;21003;-69
2022/02/13 08:37:21;;;;;;;8.10;3.47;;;11.70;99.90;;;;;;5078409;28;20198;-68
2022/02/13 08:39:47;;;;;;;6.03;3.30;;;11.70;99.90;;;;;;5057868;28;20222;-69
2022/02/13 08:42:14;;;;;;;5.13;3.80;;;11.60;99.90;;;;;;5049254;28;20638;-69
2022/02/13 08:44:40;;;;;;;4.73;3.27;;;11.60;99.90;;;;;;5076293;28;20194;-68
2022/02/13 08:47:07;;;;;;;4.13;3.47;;;11.60;99.90;;;;;;5077409;28;20186;-68
2022/02/13 08:49:33;;;;;;;5.23;3.10;;;11.70;99.90;;;;;;5073158;28;21986;-69
2022/02/13 08:51:59;;;;;;;6.83;2.97;;;11.90;99.90;;;;;;5068281;28;20199;-69
2022/02/13 08:54:26;;;;;;;6.23;3.23;;;11.90;99.90;;;;;;5076344;28;20190;-69
2022/02/13 08:56:53;;;;;;;3.93;2.70;;;11.90;99.90;;;;;;5071387;28;20197;-69
2022/02/13 08:59:20;;;;;;;5.80;2.90;;;11.90;99.90;;;;;;5071744;28;20786;-69
2022/02/13 09:01:46;;;;;;;6.73;3.10;;;12.00;99.90;;;;;;5079208;28;20691;-68
2022/02/13 09:04:13;;;;;;;4.30;3.00;;;12.10;99.90;;;;;;5082543;28;20191;-69
2022/02/13 09:06:39;;;;;;;3.70;3.20;;;12.10;99.90;;;;;;5080715;28;20689;-69
2022/02/13 09:09:10;;;;;;;7.07;2.97;;;12.10;99.90;;;;;;5083418;28;20190;-68
2022/02/13 09:11:37;;;;;;;3.57;2.43;;;12.20;99.90;;;;;;5075809;28;20567;-68
2022/02/13 09:14:04;;;;;;;4.60;2.90;;;12.20;99.90;;;;;;5065264;28;20177;-68
2022/02/13 09:16:34;;;;;;;3.90;2.70;;;12.30;99.90;;;;;;5079585;28;20190;-68
2022/02/13 09:19:00;;;;;;;8.87;2.70;;;12.30;99.90;;;;;;5076722;28;20806;-68
2022/02/13 09:21:26;;;;;;;4.97;2.57;;;12.40;99.90;;;;;;5073021;28;20209;-68
2022/02/13 09:23:54;;;;;;;5.30;2.90;;;12.50;99.90;;;;;;5074119;28;20228;-69
2022/02/13 09:26:21;;;;;;;3.77;2.50;;;12.60;99.90;;;;;;5078175;28;20259;-69
2022/02/13 09:28:47;;;;;;;6.10;2.70;;;12.60;99.90;;;;;;5076147;28;20655;-69
2022/02/13 09:31:14;;;;;;;6.03;2.50;;;12.60;99.90;;;;;;5076293;28;20217;-69
2022/02/13 09:33:40;;;;;;;4.37;2.57;;;12.60;99.90;;;;;;5079569;28;20243;-68
2022/02/13 09:36:07;;;;;;;4.53;2.67;;;12.60;99.90;;;;;;5075181;28;20198;-69
2022/02/13 09:38:33;;;;;;;4.07;2.37;;;12.60;99.90;;;;;;5076730;28;20189;-68
2022/02/13 09:41:01;;;;;;;3.20;2.50;;;12.70;99.90;;;;;;5081544;28;20269;-68
2022/02/13 09:43:28;;;;;;;7.77;3.10;;;12.80;99.90;;;;;;5067045;28;20236;-69
2022/02/13 09:45:59;;;;;;;5.07;2.40;;;12.80;99.90;;;;;;5082091;28;20265;-68
2022/02/13 09:48:29;;;;;;;3.47;2.60;;;12.90;99.90;;;;;;5078784;28;20537;-68
2022/02/13 09:50:58;;;;;;;5.10;2.40;;;13.00;99.90;;;;;;5064642;28;20299;-69
2022/02/13 09:53:27;;;;;;;4.63;2.40;;;13.20;99.90;;;;;;5083658;28;20194;-69
2022/02/13 09:55:54;;;;;;;4.87;2.20;;;13.20;99.90;;;;;;5085640;28;20530;-69
2022/02/13 09:58:21;;;;;;;3.73;2.27;;;13.30;99.90;;;;;;5077956;28;20229;-69
2022/02/13 10:01:07;;;;;;;2.83;1.93;;;13.40;99.90;;;;;;5063392;28;20676;-69
2022/02/13 10:03:49;;;;;;;2.47;2.10;;;13.50;99.90;;;;;;5071203;28;20279;-68
2022/02/13 10:06:16;;;;;;;4.57;2.07;;;13.60;99.90;;;;;;5067138;28;20183;-68
2022/02/13 10:08:48;;;;;;;4.73;2.27;;;13.60;99.90;;;;;;5065341;28;20609;-67
2022/02/13 10:11:30;;;;;;;2.87;2.10;;;13.80;99.90;;;;;;5080496;28;20221;-68
2022/02/13 10:14:15;;;;;;;4.23;2.00;;;13.80;99.90;;;;;;5047669;28;20187;-68
2022/02/13 10:16:45;;;;;;;2.93;1.90;;;14.00;99.90;;;;;;5073717;28;20387;-68
2022/02/13 10:19:19;;;;;;;6.00;2.30;;;14.00;99.90;;;;;;5065626;28;20259;-68
2022/02/13 10:21:57;;;;;;;4.20;2.00;;;14.00;99.90;;;;;;5072569;28;20210;-68
2022/02/13 10:24:31;;;;;;;3.07;1.90;;;14.10;99.90;;;;;;5051840;28;20204;-68
2022/02/13 10:26:57;;;;;;;4.53;2.30;;;14.30;99.90;;;;;;5055355;28;20525;-68
2022/02/13 10:29:30;;;;;;;3.23;1.80;;;14.40;99.90;;;;;;5062512;28;20248;-68
2022/02/13 10:32:19;;;;;;;3.93;2.10;;;14.60;99.90;;;;;;5064973;28;20277;-69
2022/02/13 10:35:08;;;;;;;3.83;1.50;;;14.80;99.90;;;;;;5074359;28;20202;-68
2022/02/13 10:37:47;;;;;;;3.73;1.77;;;15.00;99.90;;;;;;5075088;28;20197;-69
2022/02/13 10:40:39;;;;;;;3.77;1.63;;;15.30;99.90;;;;;;5065115;28;20218;-69
2022/02/13 10:43:11;;;;;;;3.10;1.70;;;15.60;99.90;;;;;;5071133;28;20233;-68
2022/02/13 10:45:42;;;;;;;3.83;1.83;;;15.40;99.90;;;;;;5081440;28;20189;-69
2022/02/13 10:48:12;;;;;;;4.70;2.03;;;15.00;99.90;;;;;;5073111;28;20593;-69
2022/02/13 10:50:41;;;;;;;5.50;2.00;;;14.70;99.90;;;;;;5068579;28;20199;-68
2022/02/13 10:53:10;;;;;;;4.03;1.90;;;14.60;99.90;;;;;;5071719;28;20230;-69
2022/02/13 10:55:38;;;;;;;3.67;2.03;;;14.40;99.90;;;;;;5081514;28;20608;-69
2022/02/13 10:58:05;;;;;;;3.23;1.90;;;14.30;99.90;;;;;;5068074;28;20206;-69
2022/02/13 11:00:32;;;;;;;4.50;2.00;;;14.80;99.90;;;;;;5077697;28;20190;-68
2022/02/13 11:03:06;;;;;;;3.77;1.87;;;15.50;99.90;;;;;;5071172;28;20670;-69
2022/02/13 11:05:34;;;;;;;8.70;1.87;;;16.00;99.90;;;;;;5064397;28;20194;-69
2022/02/13 11:08:09;;;;;;;3.20;1.60;;;15.70;99.90;;;;;;5073687;28;20194;-69
2022/02/13 11:10:42;;;;;;;3.33;1.87;;;15.40;99.90;;;;;;5076694;28;20926;-69
2022/02/13 11:13:12;;;;;;;3.77;1.60;;;15.30;99.90;;;;;;5079477;28;20535;-68
2022/02/13 11:15:42;;;;;;;4.67;1.70;;;15.40;99.90;;;;;;5057599;28;20194;-69
2022/02/13 11:18:22;;;;;;;4.33;1.50;;;15.40;99.90;;;;;;5084390;28;20201;-69
2022/02/13 11:20:52;;;;;;;2.57;2.03;;;15.10;99.90;;;;;;5074085;28;20301;-69
2022/02/13 11:23:35;;;;;;;2.27;1.60;;;14.70;99.90;;;;;;5061432;28;20246;-68
2022/02/13 11:26:41;;;;;;;5.77;1.93;;;14.80;99.90;;;;;;5043993;28;20199;-68
2022/02/13 11:29:16;;;;;;;3.97;1.70;;;15.00;99.90;;;;;;5060702;28;20194;-68
2022/02/13 11:31:55;;;;;;;2.60;1.80;;;15.10;99.90;;;;;;5058961;28;20190;-69
2022/02/13 11:34:27;;;;;;;3.73;1.70;;;15.30;99.90;;;;;;5036747;28;20189;-68
2022/02/13 11:37:14;;;;;;;3.73;1.77;;;15.40;99.90;;;;;;5060830;28;20975;-69
2022/02/13 11:39:46;;;;;;;4.53;1.70;;;15.50;99.90;;;;;;5054495;28;20195;-68
2022/02/13 11:42:21;;;;;;;3.90;1.57;;;15.50;99.90;;;;;;5049951;28;20317;-69
2022/02/13 11:44:57;;;;;;;4.63;2.00;;;15.40;99.90;;;;;;5040610;28;20739;-69
2022/02/13 11:47:35;;;;;;;6.80;1.97;;;15.30;99.90;;;;;;5049002;28;20203;-69
2022/02/13 11:50:09;;;;;;;2.33;1.77;;;15.10;99.90;;;;;;5027780;28;20187;-69
2022/02/13 11:53:00;;;;;;;3.47;1.50;;;14.90;99.90;;;;;;5034388;28;20225;-69
2022/02/13 11:55:32;;;;;;;5.13;2.00;;;14.70;99.90;;;;;;5027204;28;20630;-69
2022/02/13 11:58:13;;;;;;;3.23;2.20;;;14.60;99.90;;;;;;5058298;28;20210;-68
2022/02/13 12:00:43;;;;;;;3.23;1.83;;;14.50;99.90;;;;;;5070025;28;20208;-68
2022/02/13 12:03:19;;;;;;;4.03;1.80;;;14.50;99.90;;;;;;5069128;28;20226;-68
2022/02/13 12:06:12;;;;;;;3.50;1.73;;;14.50;99.90;;;;;;5073787;28;20187;-68
2022/02/13 12:08:42;;;;;;;2.10;1.70;;;14.60;99.90;;;;;;5068032;28;20303;-68
2022/02/13 12:11:10;;;;;;;3.20;1.67;;;14.70;99.90;;;;;;5050885;28;20182;-68
2022/02/13 12:13:38;;;;;;;2.53;1.70;;;14.80;99.90;;;;;;5065407;28;20190;-67
2022/02/13 12:16:08;;;;;;;8.07;3.00;;;14.70;99.90;;;;;;5073902;28;21686;-68
2022/02/13 12:18:36;;;;;;;7.37;1.97;;;14.70;99.90;;;;;;5073579;28;20268;-68
2022/02/13 12:21:08;;;;;;;2.30;1.63;;;14.70;99.90;;;;;;5072554;28;20905;-68
2022/02/13 12:23:35;;;;;;;3.23;1.90;;;14.70;99.90;;;;;;5068121;28;20314;-67
2022/02/13 12:26:03;;;;;;;4.90;1.87;;;14.70;99.90;;;;;;5072574;28;20243;-68
2022/02/13 12:28:34;;;;;;;2.73;1.77;;;14.70;99.90;;;;;;5067877;28;20195;-68
2022/02/13 12:31:05;;;;;;;12.77;2.43;;;14.70;99.90;;;;;;5058319;28;20539;-68
2022/02/13 12:33:39;;;;;;;8.13;2.90;;;14.60;99.90;;;;;;5075924;28;21399;-68
2022/02/13 12:36:06;;;;;;;2.67;1.90;;;14.40;99.90;;;;;;5076031;28;20198;-68
2022/02/13 12:38:32;;;;;;;4.23;2.20;;;14.50;99.90;;;;;;5059851;28;20182;-68
2022/02/13 12:41:00;;;;;;;2.83;1.90;;;14.60;99.90;;;;;;5078134;28;20190;-68
2022/02/13 12:43:27;;;;;;;3.73;1.80;;;14.70;99.90;;;;;;5070174;28;20199;-68
2022/02/13 12:45:56;;;;;;;4.80;1.90;;;14.70;99.90;;;;;;5074940;28;20274;-68
2022/02/13 12:48:27;;;;;;;2.87;1.70;;;14.80;99.90;;;;;;5068009;28;20205;-68
2022/02/13 12:50:57;;;;;;;2.30;1.70;;;14.80;99.90;;;;;;5068031;28;20243;-68
2022/02/13 12:53:32;;;;;;;2.83;1.73;;;14.70;99.90;;;;;;5075521;28;20186;-68
2022/02/13 12:56:02;;;;;;;4.10;2.27;;;14.40;99.90;;;;;;5070448;28;20195;-68
2022/02/13 12:58:37;;;;;;;4.63;1.90;;;14.30;99.90;;;;;;5076043;28;20939;-68
2022/02/13 13:01:05;;;;;;;3.33;1.97;;;14.20;99.90;;;;;;5072677;28;20186;-68